Huvudsida
METAR-TAF:

METAR-TAF

Flygplatser :

Irkutsk, Ryssland

latitud: 52-16N, longitud: 104-19E, höjd: 513 m

Aktuellt väderrapport

Denna rapport gjordes för 20 minuter sedan, klockan 15:00 UTC
Vind 10 kt från väst
Temperatur 7°C
Fuktighet 93%
Tryck 1017 hPa
Sikt 10 km eller mer
Spridda moln på en höjd av 3300 ft, Cumulonimbus.

METAR: UIII 261500Z 28005MPS 9999 SCT033CB 07/06 Q1017 R30/290150 NOSIG RMK QFE718/0957

Tid: 23:20 (15:20 UTC)

Väderprognos

Denna rapport gjordes för 1 timme och 20 minuter sedan, klockan 14:00 UTC
Prognos gäller från 26 kl. 15 UTC till 27 kl. 15 UTC
Vind 10 kt från väst/nordväst
Sikt 10 km eller mer
Brutna moln på en höjd av 1200 ft, Cumulonimbus.
Temporärt
från 26 kl. 15 UTC till 27 kl. 12 UTC
Vind 19 kt från nord/nordväst
Sikt: 1500 m
Mulet på en höjd av 400 ft, Cumulonimbus.
regnskurar, snö

TAF: UIII 261400Z 2615/2715 29005MPS 9999 BKN012CB TEMPO 2615/2712 33010MPS 1500 SHRASN OVC004CB

Aktuella väderrapporter och prognoser från 4000 flygplatser (METAR- och TAF-rapporter).

De tillgängliga stationerna syns som gula och röda prickar på kartan.

För musen över prickarna för att se namnen på stationerna.

Klicka sedan för att få väderrapporter och prognoser.

För att ändra kartan: Klicka på de gröna knapparna med ett svart kors på för att zooma in; den gröna knappen med ett streck på för att zooma ut; eller på de gröna pilarna för angränsande kartor.


METAR-TAF: